sensor_id;sensor_type;location;lat;lon;timestamp;P1;durP1;ratioP1;P2;durP2;ratioP2
29958;SDS011;16815;51.100;6.516;2022-11-15T00:01:37;11.27;;;7.30;;
29958;SDS011;16815;51.100;6.516;2022-11-15T00:04:03;18.03;;;9.23;;
29958;SDS011;16815;51.100;6.516;2022-11-15T00:06:29;13.10;;;7.67;;
29958;SDS011;16815;51.100;6.516;2022-11-15T00:08:57;11.63;;;7.43;;
29958;SDS011;16815;51.100;6.516;2022-11-15T00:11:23;12.23;;;8.20;;
29958;SDS011;16815;51.100;6.516;2022-11-15T00:13:50;11.73;;;7.27;;
29958;SDS011;16815;51.100;6.516;2022-11-15T00:16:16;14.17;;;7.57;;
29958;SDS011;16815;51.100;6.516;2022-11-15T00:18:42;10.00;;;6.90;;
29958;SDS011;16815;51.100;6.516;2022-11-15T00:21:09;11.10;;;7.70;;
29958;SDS011;16815;51.100;6.516;2022-11-15T00:23:35;11.47;;;7.13;;
29958;SDS011;16815;51.100;6.516;2022-11-15T00:26:02;12.57;;;7.43;;
29958;SDS011;16815;51.100;6.516;2022-11-15T00:28:28;9.37;;;6.87;;
29958;SDS011;16815;51.100;6.516;2022-11-15T00:30:59;12.67;;;7.30;;
29958;SDS011;16815;51.100;6.516;2022-11-15T00:33:25;8.10;;;7.30;;
29958;SDS011;16815;51.100;6.516;2022-11-15T00:35:51;8.87;;;6.47;;
29958;SDS011;16815;51.100;6.516;2022-11-15T00:38:17;9.93;;;7.03;;
29958;SDS011;16815;51.100;6.516;2022-11-15T00:40:43;9.23;;;6.83;;
29958;SDS011;16815;51.100;6.516;2022-11-15T00:43:09;7.87;;;6.53;;
29958;SDS011;16815;51.100;6.516;2022-11-15T00:45:35;9.23;;;6.80;;
29958;SDS011;16815;51.100;6.516;2022-11-15T00:48:01;11.03;;;7.43;;
29958;SDS011;16815;51.100;6.516;2022-11-15T00:50:27;10.27;;;7.27;;
29958;SDS011;16815;51.100;6.516;2022-11-15T00:52:53;8.97;;;6.60;;
29958;SDS011;16815;51.100;6.516;2022-11-15T00:55:19;6.67;;;6.00;;
29958;SDS011;16815;51.100;6.516;2022-11-15T00:57:45;8.37;;;6.73;;
29958;SDS011;16815;51.100;6.516;2022-11-15T01:00:11;7.60;;;6.13;;
29958;SDS011;16815;51.100;6.516;2022-11-15T01:02:37;10.43;;;6.80;;
29958;SDS011;16815;51.100;6.516;2022-11-15T01:05:03;9.57;;;6.07;;
29958;SDS011;16815;51.100;6.516;2022-11-15T01:07:29;8.67;;;6.03;;
29958;SDS011;16815;51.100;6.516;2022-11-15T01:09:55;9.03;;;6.67;;
29958;SDS011;16815;51.100;6.516;2022-11-15T01:12:21;6.93;;;6.23;;
29958;SDS011;16815;51.100;6.516;2022-11-15T01:14:47;7.20;;;6.00;;
29958;SDS011;16815;51.100;6.516;2022-11-15T01:17:13;8.77;;;5.93;;
29958;SDS011;16815;51.100;6.516;2022-11-15T01:19:39;10.30;;;6.53;;
29958;SDS011;16815;51.100;6.516;2022-11-15T01:22:05;12.53;;;5.70;;
29958;SDS011;16815;51.100;6.516;2022-11-15T01:24:31;7.00;;;5.83;;
29958;SDS011;16815;51.100;6.516;2022-11-15T01:26:57;9.43;;;5.50;;
29958;SDS011;16815;51.100;6.516;2022-11-15T01:29:23;7.17;;;5.43;;
29958;SDS011;16815;51.100;6.516;2022-11-15T01:31:49;7.60;;;5.27;;
29958;SDS011;16815;51.100;6.516;2022-11-15T01:34:15;8.30;;;5.00;;
29958;SDS011;16815;51.100;6.516;2022-11-15T01:36:41;7.87;;;5.37;;
29958;SDS011;16815;51.100;6.516;2022-11-15T01:39:07;6.90;;;5.13;;
29958;SDS011;16815;51.100;6.516;2022-11-15T01:41:33;5.80;;;5.03;;
29958;SDS011;16815;51.100;6.516;2022-11-15T01:46:47;6.43;;;4.90;;
29958;SDS011;16815;51.100;6.516;2022-11-15T01:49:17;7.17;;;4.87;;
29958;SDS011;16815;51.100;6.516;2022-11-15T01:51:43;6.57;;;4.70;;
29958;SDS011;16815;51.100;6.516;2022-11-15T01:54:10;6.00;;;5.13;;
29958;SDS011;16815;51.100;6.516;2022-11-15T01:56:49;6.70;;;5.57;;
29958;SDS011;16815;51.100;6.516;2022-11-15T01:59:16;7.67;;;5.30;;
29958;SDS011;16815;51.100;6.516;2022-11-15T02:01:42;6.40;;;5.40;;
29958;SDS011;16815;51.100;6.516;2022-11-15T02:04:13;6.67;;;5.33;;
29958;SDS011;16815;51.100;6.516;2022-11-15T02:06:39;8.87;;;5.20;;
29958;SDS011;16815;51.100;6.516;2022-11-15T02:09:06;8.30;;;4.93;;
29958;SDS011;16815;51.100;6.516;2022-11-15T02:11:32;6.73;;;4.87;;
29958;SDS011;16815;51.100;6.516;2022-11-15T02:13:58;9.57;;;4.77;;
29958;SDS011;16815;51.100;6.516;2022-11-15T02:16:39;6.97;;;5.00;;
29958;SDS011;16815;51.100;6.516;2022-11-15T02:21:41;7.07;;;4.70;;
29958;SDS011;16815;51.100;6.516;2022-11-15T02:25:14;7.10;;;4.40;;
29958;SDS011;16815;51.100;6.516;2022-11-15T02:27:09;5.83;;;4.47;;
29958;SDS011;16815;51.100;6.516;2022-11-15T02:29:56;5.70;;;4.57;;
29958;SDS011;16815;51.100;6.516;2022-11-15T02:32:37;6.60;;;4.50;;
29958;SDS011;16815;51.100;6.516;2022-11-15T02:37:39;7.53;;;5.10;;
29958;SDS011;16815;51.100;6.516;2022-11-15T02:40:23;7.70;;;4.57;;
29958;SDS011;16815;51.100;6.516;2022-11-15T02:42:53;5.63;;;4.70;;
29958;SDS011;16815;51.100;6.516;2022-11-15T02:45:41;7.57;;;4.90;;
29958;SDS011;16815;51.100;6.516;2022-11-15T02:48:07;6.37;;;5.00;;
29958;SDS011;16815;51.100;6.516;2022-11-15T02:50:34;6.53;;;4.70;;
29958;SDS011;16815;51.100;6.516;2022-11-15T02:53:00;8.00;;;5.30;;
29958;SDS011;16815;51.100;6.516;2022-11-15T02:55:32;9.30;;;4.70;;
29958;SDS011;16815;51.100;6.516;2022-11-15T02:58:16;8.83;;;4.50;;
29958;SDS011;16815;51.100;6.516;2022-11-15T03:06:09;13.07;;;5.33;;
29958;SDS011;16815;51.100;6.516;2022-11-15T03:08:46;8.77;;;5.17;;
29958;SDS011;16815;51.100;6.516;2022-11-15T03:11:19;11.87;;;5.87;;
29958;SDS011;16815;51.100;6.516;2022-11-15T03:13:48;8.50;;;5.43;;
29958;SDS011;16815;51.100;6.516;2022-11-15T03:18:53;8.60;;;5.10;;
29958;SDS011;16815;51.100;6.516;2022-11-15T03:21:21;10.03;;;4.83;;
29958;SDS011;16815;51.100;6.516;2022-11-15T03:23:47;7.73;;;4.77;;
29958;SDS011;16815;51.100;6.516;2022-11-15T03:26:14;9.63;;;6.00;;
29958;SDS011;16815;51.100;6.516;2022-11-15T03:28:52;6.93;;;5.10;;
29958;SDS011;16815;51.100;6.516;2022-11-15T03:31:20;6.73;;;5.10;;
29958;SDS011;16815;51.100;6.516;2022-11-15T03:34:06;6.93;;;4.63;;
29958;SDS011;16815;51.100;6.516;2022-11-15T03:36:33;8.07;;;5.40;;
29958;SDS011;16815;51.100;6.516;2022-11-15T03:39:02;6.27;;;4.70;;
29958;SDS011;16815;51.100;6.516;2022-11-15T03:41:33;9.20;;;4.80;;
29958;SDS011;16815;51.100;6.516;2022-11-15T03:44:21;6.67;;;5.00;;
29958;SDS011;16815;51.100;6.516;2022-11-15T03:47:12;6.77;;;4.50;;
29958;SDS011;16815;51.100;6.516;2022-11-15T03:49:43;5.40;;;4.87;;
29958;SDS011;16815;51.100;6.516;2022-11-15T03:52:10;4.83;;;4.43;;
29958;SDS011;16815;51.100;6.516;2022-11-15T03:54:36;5.40;;;3.90;;
29958;SDS011;16815;51.100;6.516;2022-11-15T03:57:02;4.30;;;3.90;;
29958;SDS011;16815;51.100;6.516;2022-11-15T03:59:28;3.60;;;3.30;;
29958;SDS011;16815;51.100;6.516;2022-11-15T04:01:54;4.97;;;3.93;;
29958;SDS011;16815;51.100;6.516;2022-11-15T04:04:20;6.50;;;3.60;;
29958;SDS011;16815;51.100;6.516;2022-11-15T04:06:46;7.77;;;3.77;;
29958;SDS011;16815;51.100;6.516;2022-11-15T04:09:12;4.20;;;3.50;;
29958;SDS011;16815;51.100;6.516;2022-11-15T04:11:38;3.80;;;3.50;;
29958;SDS011;16815;51.100;6.516;2022-11-15T04:14:04;5.03;;;3.70;;
29958;SDS011;16815;51.100;6.516;2022-11-15T04:16:30;5.90;;;4.07;;
29958;SDS011;16815;51.100;6.516;2022-11-15T04:18:56;3.83;;;3.50;;
29958;SDS011;16815;51.100;6.516;2022-11-15T04:21:41;4.00;;;3.60;;
29958;SDS011;16815;51.100;6.516;2022-11-15T04:24:25;5.33;;;4.10;;
29958;SDS011;16815;51.100;6.516;2022-11-15T04:26:51;6.20;;;3.70;;
29958;SDS011;16815;51.100;6.516;2022-11-15T04:29:17;4.00;;;3.60;;
29958;SDS011;16815;51.100;6.516;2022-11-15T04:32:04;5.00;;;3.53;;
29958;SDS011;16815;51.100;6.516;2022-11-15T04:34:31;3.80;;;3.40;;
29958;SDS011;16815;51.100;6.516;2022-11-15T04:36:57;4.17;;;3.57;;
29958;SDS011;16815;51.100;6.516;2022-11-15T04:39:39;3.57;;;3.27;;
29958;SDS011;16815;51.100;6.516;2022-11-15T04:42:05;3.87;;;3.40;;
29958;SDS011;16815;51.100;6.516;2022-11-15T04:44:31;3.67;;;3.27;;
29958;SDS011;16815;51.100;6.516;2022-11-15T04:47:00;3.30;;;3.00;;
29958;SDS011;16815;51.100;6.516;2022-11-15T04:49:26;3.37;;;2.80;;
29958;SDS011;16815;51.100;6.516;2022-11-15T04:51:52;3.40;;;3.10;;
29958;SDS011;16815;51.100;6.516;2022-11-15T04:54:18;5.50;;;3.40;;
29958;SDS011;16815;51.100;6.516;2022-11-15T04:56:44;3.27;;;2.97;;
29958;SDS011;16815;51.100;6.516;2022-11-15T04:59:10;3.20;;;2.90;;
29958;SDS011;16815;51.100;6.516;2022-11-15T05:01:36;3.07;;;2.77;;
29958;SDS011;16815;51.100;6.516;2022-11-15T05:04:02;3.77;;;2.67;;
29958;SDS011;16815;51.100;6.516;2022-11-15T05:06:50;2.90;;;2.67;;
29958;SDS011;16815;51.100;6.516;2022-11-15T05:09:16;5.37;;;3.23;;
29958;SDS011;16815;51.100;6.516;2022-11-15T05:11:42;2.80;;;2.60;;
29958;SDS011;16815;51.100;6.516;2022-11-15T05:14:08;4.20;;;2.90;;
29958;SDS011;16815;51.100;6.516;2022-11-15T05:16:35;4.77;;;2.73;;
29958;SDS011;16815;51.100;6.516;2022-11-15T05:19:01;2.80;;;2.50;;
29958;SDS011;16815;51.100;6.516;2022-11-15T05:21:26;4.20;;;2.77;;
29958;SDS011;16815;51.100;6.516;2022-11-15T05:23:52;2.40;;;2.20;;
29958;SDS011;16815;51.100;6.516;2022-11-15T05:26:18;3.77;;;2.60;;
29958;SDS011;16815;51.100;6.516;2022-11-15T05:28:44;4.30;;;2.90;;
29958;SDS011;16815;51.100;6.516;2022-11-15T05:31:11;4.40;;;2.90;;
29958;SDS011;16815;51.100;6.516;2022-11-15T05:33:38;4.70;;;2.70;;
29958;SDS011;16815;51.100;6.516;2022-11-15T05:38:31;2.70;;;2.43;;
29958;SDS011;16815;51.100;6.516;2022-11-15T05:40:57;3.73;;;2.60;;
29958;SDS011;16815;51.100;6.516;2022-11-15T05:43:23;2.57;;;2.30;;
29958;SDS011;16815;51.100;6.516;2022-11-15T05:45:49;3.20;;;2.50;;
29958;SDS011;16815;51.100;6.516;2022-11-15T05:48:15;2.70;;;2.43;;
29958;SDS011;16815;51.100;6.516;2022-11-15T05:50:42;2.53;;;2.33;;
29958;SDS011;16815;51.100;6.516;2022-11-15T05:53:10;3.60;;;2.30;;
29958;SDS011;16815;51.100;6.516;2022-11-15T05:55:38;6.57;;;2.20;;
29958;SDS011;16815;51.100;6.516;2022-11-15T05:58:04;2.67;;;2.47;;
29958;SDS011;16815;51.100;6.516;2022-11-15T06:00:30;3.57;;;2.60;;
29958;SDS011;16815;51.100;6.516;2022-11-15T06:02:56;6.93;;;2.70;;
29958;SDS011;16815;51.100;6.516;2022-11-15T06:05:22;3.00;;;2.50;;
29958;SDS011;16815;51.100;6.516;2022-11-15T06:07:48;3.37;;;2.30;;
29958;SDS011;16815;51.100;6.516;2022-11-15T06:10:14;5.13;;;2.27;;
29958;SDS011;16815;51.100;6.516;2022-11-15T06:12:40;2.57;;;2.20;;
29958;SDS011;16815;51.100;6.516;2022-11-15T06:15:06;2.47;;;1.97;;
29958;SDS011;16815;51.100;6.516;2022-11-15T06:17:32;3.47;;;2.30;;
29958;SDS011;16815;51.100;6.516;2022-11-15T06:19:58;3.27;;;2.40;;
29958;SDS011;16815;51.100;6.516;2022-11-15T06:22:24;5.40;;;2.30;;
29958;SDS011;16815;51.100;6.516;2022-11-15T06:24:50;3.57;;;2.40;;
29958;SDS011;16815;51.100;6.516;2022-11-15T06:27:16;2.93;;;2.03;;
29958;SDS011;16815;51.100;6.516;2022-11-15T06:29:42;4.40;;;2.10;;
29958;SDS011;16815;51.100;6.516;2022-11-15T06:32:08;5.33;;;2.20;;
29958;SDS011;16815;51.100;6.516;2022-11-15T06:34:34;3.77;;;1.90;;
29958;SDS011;16815;51.100;6.516;2022-11-15T06:37:00;3.27;;;1.80;;
29958;SDS011;16815;51.100;6.516;2022-11-15T06:39:26;1.73;;;1.50;;
29958;SDS011;16815;51.100;6.516;2022-11-15T06:41:52;4.00;;;1.67;;
29958;SDS011;16815;51.100;6.516;2022-11-15T06:44:18;2.17;;;1.90;;
29958;SDS011;16815;51.100;6.516;2022-11-15T06:46:44;2.03;;;1.90;;
29958;SDS011;16815;51.100;6.516;2022-11-15T06:49:10;1.50;;;1.40;;
29958;SDS011;16815;51.100;6.516;2022-11-15T06:51:36;1.93;;;1.70;;
29958;SDS011;16815;51.100;6.516;2022-11-15T06:54:02;3.03;;;1.60;;
29958;SDS011;16815;51.100;6.516;2022-11-15T06:56:28;3.10;;;1.57;;
29958;SDS011;16815;51.100;6.516;2022-11-15T06:58:54;2.63;;;1.80;;
29958;SDS011;16815;51.100;6.516;2022-11-15T07:01:20;2.27;;;1.67;;
29958;SDS011;16815;51.100;6.516;2022-11-15T07:03:46;5.03;;;3.10;;
29958;SDS011;16815;51.100;6.516;2022-11-15T07:06:12;5.13;;;3.00;;
29958;SDS011;16815;51.100;6.516;2022-11-15T07:08:38;3.57;;;2.50;;
29958;SDS011;16815;51.100;6.516;2022-11-15T07:11:06;2.37;;;2.07;;
29958;SDS011;16815;51.100;6.516;2022-11-15T07:13:33;1.57;;;1.47;;
29958;SDS011;16815;51.100;6.516;2022-11-15T07:16:03;2.60;;;1.60;;
29958;SDS011;16815;51.100;6.516;2022-11-15T07:18:29;1.83;;;1.50;;
29958;SDS011;16815;51.100;6.516;2022-11-15T07:20:59;2.17;;;1.40;;
29958;SDS011;16815;51.100;6.516;2022-11-15T07:23:25;1.83;;;1.30;;
29958;SDS011;16815;51.100;6.516;2022-11-15T07:25:51;1.43;;;1.30;;
29958;SDS011;16815;51.100;6.516;2022-11-15T07:28:17;1.80;;;1.70;;
29958;SDS011;16815;51.100;6.516;2022-11-15T07:30:43;1.50;;;1.40;;
29958;SDS011;16815;51.100;6.516;2022-11-15T07:33:09;1.80;;;1.70;;
29958;SDS011;16815;51.100;6.516;2022-11-15T07:35:35;1.60;;;1.50;;
29958;SDS011;16815;51.100;6.516;2022-11-15T07:38:02;2.40;;;1.57;;
29958;SDS011;16815;51.100;6.516;2022-11-15T07:40:28;1.50;;;1.40;;
29958;SDS011;16815;51.100;6.516;2022-11-15T07:43:04;1.20;;;1.10;;
29958;SDS011;16815;51.100;6.516;2022-11-15T07:45:30;1.00;;;1.00;;
29958;SDS011;16815;51.100;6.516;2022-11-15T07:47:58;1.30;;;1.10;;
29958;SDS011;16815;51.100;6.516;2022-11-15T07:50:24;2.60;;;1.70;;
29958;SDS011;16815;51.100;6.516;2022-11-15T07:52:58;2.23;;;1.63;;
29958;SDS011;16815;51.100;6.516;2022-11-15T07:55:25;2.33;;;1.43;;
29958;SDS011;16815;51.100;6.516;2022-11-15T07:57:52;2.23;;;1.40;;
29958;SDS011;16815;51.100;6.516;2022-11-15T08:00:18;4.10;;;1.40;;
29958;SDS011;16815;51.100;6.516;2022-11-15T08:02:44;1.60;;;1.10;;
29958;SDS011;16815;51.100;6.516;2022-11-15T08:05:10;2.60;;;1.00;;
29958;SDS011;16815;51.100;6.516;2022-11-15T08:07:36;2.07;;;1.07;;
29958;SDS011;16815;51.100;6.516;2022-11-15T08:10:03;3.57;;;1.40;;
29958;SDS011;16815;51.100;6.516;2022-11-15T08:12:30;2.50;;;1.57;;
29958;SDS011;16815;51.100;6.516;2022-11-15T08:14:56;5.60;;;1.73;;
29958;SDS011;16815;51.100;6.516;2022-11-15T08:17:23;3.00;;;1.77;;
29958;SDS011;16815;51.100;6.516;2022-11-15T08:19:49;4.07;;;2.10;;
29958;SDS011;16815;51.100;6.516;2022-11-15T08:22:15;4.13;;;2.00;;
29958;SDS011;16815;51.100;6.516;2022-11-15T08:24:41;5.80;;;2.07;;
29958;SDS011;16815;51.100;6.516;2022-11-15T08:27:07;4.67;;;1.90;;
29958;SDS011;16815;51.100;6.516;2022-11-15T08:29:42;2.80;;;1.83;;
29958;SDS011;16815;51.100;6.516;2022-11-15T08:32:08;5.90;;;2.17;;
29958;SDS011;16815;51.100;6.516;2022-11-15T08:34:34;4.03;;;1.53;;
29958;SDS011;16815;51.100;6.516;2022-11-15T08:37:00;6.40;;;2.40;;
29958;SDS011;16815;51.100;6.516;2022-11-15T08:39:26;5.97;;;1.83;;
29958;SDS011;16815;51.100;6.516;2022-11-15T08:41:52;3.27;;;1.73;;
29958;SDS011;16815;51.100;6.516;2022-11-15T08:44:18;5.03;;;1.90;;
29958;SDS011;16815;51.100;6.516;2022-11-15T08:46:47;3.63;;;2.07;;
29958;SDS011;16815;51.100;6.516;2022-11-15T08:49:13;7.40;;;2.10;;
29958;SDS011;16815;51.100;6.516;2022-11-15T08:51:39;6.50;;;2.00;;
29958;SDS011;16815;51.100;6.516;2022-11-15T08:54:05;7.10;;;2.40;;
29958;SDS011;16815;51.100;6.516;2022-11-15T08:56:31;5.60;;;2.50;;
29958;SDS011;16815;51.100;6.516;2022-11-15T08:58:57;3.57;;;1.90;;
29958;SDS011;16815;51.100;6.516;2022-11-15T09:01:23;4.20;;;1.50;;
29958;SDS011;16815;51.100;6.516;2022-11-15T09:03:49;3.27;;;1.97;;
29958;SDS011;16815;51.100;6.516;2022-11-15T09:06:15;3.80;;;1.50;;
29958;SDS011;16815;51.100;6.516;2022-11-15T09:08:40;4.17;;;1.90;;
29958;SDS011;16815;51.100;6.516;2022-11-15T09:11:07;3.80;;;1.70;;
29958;SDS011;16815;51.100;6.516;2022-11-15T09:13:34;7.27;;;1.73;;
29958;SDS011;16815;51.100;6.516;2022-11-15T09:16:02;2.40;;;1.63;;
29958;SDS011;16815;51.100;6.516;2022-11-15T09:18:28;9.10;;;1.67;;
29958;SDS011;16815;51.100;6.516;2022-11-15T09:20:57;8.20;;;1.70;;
29958;SDS011;16815;51.100;6.516;2022-11-15T09:23:23;5.83;;;2.00;;
29958;SDS011;16815;51.100;6.516;2022-11-15T09:25:50;2.40;;;1.40;;
29958;SDS011;16815;51.100;6.516;2022-11-15T09:28:16;4.90;;;1.70;;
29958;SDS011;16815;51.100;6.516;2022-11-15T09:30:42;2.43;;;1.57;;
29958;SDS011;16815;51.100;6.516;2022-11-15T09:33:08;2.03;;;1.30;;
29958;SDS011;16815;51.100;6.516;2022-11-15T09:35:34;3.93;;;1.60;;
29958;SDS011;16815;51.100;6.516;2022-11-15T09:38:01;3.23;;;1.60;;
29958;SDS011;16815;51.100;6.516;2022-11-15T09:40:27;1.80;;;1.57;;
29958;SDS011;16815;51.100;6.516;2022-11-15T09:43:05;1.97;;;1.60;;
29958;SDS011;16815;51.100;6.516;2022-11-15T09:45:42;2.30;;;1.50;;
29958;SDS011;16815;51.100;6.516;2022-11-15T09:48:20;3.03;;;1.30;;
29958;SDS011;16815;51.100;6.516;2022-11-15T09:50:51;1.63;;;1.30;;
29958;SDS011;16815;51.100;6.516;2022-11-15T09:54:10;3.10;;;1.63;;
29958;SDS011;16815;51.100;6.516;2022-11-15T09:56:22;3.43;;;1.27;;
29958;SDS011;16815;51.100;6.516;2022-11-15T10:01:22;2.10;;;1.40;;
29958;SDS011;16815;51.100;6.516;2022-11-15T10:03:55;3.13;;;1.40;;
29958;SDS011;16815;51.100;6.516;2022-11-15T10:06:24;2.20;;;1.23;;
29958;SDS011;16815;51.100;6.516;2022-11-15T10:09:06;1.93;;;1.37;;
29958;SDS011;16815;51.100;6.516;2022-11-15T10:11:34;2.37;;;1.20;;
29958;SDS011;16815;51.100;6.516;2022-11-15T10:14:02;1.80;;;1.27;;
29958;SDS011;16815;51.100;6.516;2022-11-15T10:18:57;2.93;;;1.30;;
29958;SDS011;16815;51.100;6.516;2022-11-15T10:21:29;3.53;;;1.30;;
29958;SDS011;16815;51.100;6.516;2022-11-15T10:23:59;1.77;;;1.00;;
29958;SDS011;16815;51.100;6.516;2022-11-15T10:26:25;3.17;;;1.10;;
29958;SDS011;16815;51.100;6.516;2022-11-15T10:28:53;1.93;;;1.17;;
29958;SDS011;16815;51.100;6.516;2022-11-15T10:31:26;2.33;;;1.00;;
29958;SDS011;16815;51.100;6.516;2022-11-15T10:36:37;2.93;;;1.10;;
29958;SDS011;16815;51.100;6.516;2022-11-15T10:39:03;1.73;;;1.20;;
29958;SDS011;16815;51.100;6.516;2022-11-15T10:41:34;3.17;;;1.10;;
29958;SDS011;16815;51.100;6.516;2022-11-15T10:46:33;6.93;;;2.20;;
29958;SDS011;16815;51.100;6.516;2022-11-15T10:49:12;3.83;;;1.80;;
29958;SDS011;16815;51.100;6.516;2022-11-15T10:51:52;4.43;;;1.97;;
29958;SDS011;16815;51.100;6.516;2022-11-15T10:54:28;3.60;;;1.93;;
29958;SDS011;16815;51.100;6.516;2022-11-15T10:56:56;2.30;;;1.30;;
29958;SDS011;16815;51.100;6.516;2022-11-15T10:59:29;4.27;;;1.40;;
29958;SDS011;16815;51.100;6.516;2022-11-15T11:01:56;2.90;;;1.00;;
29958;SDS011;16815;51.100;6.516;2022-11-15T11:04:22;4.10;;;1.17;;
29958;SDS011;16815;51.100;6.516;2022-11-15T11:06:49;2.57;;;1.17;;
29958;SDS011;16815;51.100;6.516;2022-11-15T11:09:58;4.83;;;1.30;;
29958;SDS011;16815;51.100;6.516;2022-11-15T11:12:10;4.77;;;1.13;;
29958;SDS011;16815;51.100;6.516;2022-11-15T11:14:37;2.80;;;1.10;;
29958;SDS011;16815;51.100;6.516;2022-11-15T11:17:13;2.00;;;1.10;;
29958;SDS011;16815;51.100;6.516;2022-11-15T11:20:25;3.33;;;1.30;;
29958;SDS011;16815;51.100;6.516;2022-11-15T11:22:40;3.17;;;1.20;;
29958;SDS011;16815;51.100;6.516;2022-11-15T11:27:41;6.03;;;1.17;;
29958;SDS011;16815;51.100;6.516;2022-11-15T11:30:14;2.87;;;1.30;;
29958;SDS011;16815;51.100;6.516;2022-11-15T11:43:23;3.97;;;1.60;;
29958;SDS011;16815;51.100;6.516;2022-11-15T11:45:48;5.30;;;1.33;;
29958;SDS011;16815;51.100;6.516;2022-11-15T11:49:01;5.43;;;1.60;;
29958;SDS011;16815;51.100;6.516;2022-11-15T11:51:10;7.03;;;1.53;;
29958;SDS011;16815;51.100;6.516;2022-11-15T11:53:40;3.60;;;1.20;;
29958;SDS011;16815;51.100;6.516;2022-11-15T11:56:12;3.43;;;1.00;;
29958;SDS011;16815;51.100;6.516;2022-11-15T11:58:41;7.80;;;1.10;;
29958;SDS011;16815;51.100;6.516;2022-11-15T12:01:16;5.30;;;1.20;;
29958;SDS011;16815;51.100;6.516;2022-11-15T12:06:20;3.27;;;1.13;;
29958;SDS011;16815;51.100;6.516;2022-11-15T12:08:50;5.17;;;1.50;;
29958;SDS011;16815;51.100;6.516;2022-11-15T12:11:28;3.07;;;1.20;;
29958;SDS011;16815;51.100;6.516;2022-11-15T12:13:58;2.57;;;1.20;;
29958;SDS011;16815;51.100;6.516;2022-11-15T12:18:52;2.57;;;1.30;;
29958;SDS011;16815;51.100;6.516;2022-11-15T12:21:25;4.30;;;1.17;;
29958;SDS011;16815;51.100;6.516;2022-11-15T12:23:57;2.97;;;1.30;;
29958;SDS011;16815;51.100;6.516;2022-11-15T12:26:26;1.30;;;1.20;;
29958;SDS011;16815;51.100;6.516;2022-11-15T12:28:54;5.93;;;1.37;;
29958;SDS011;16815;51.100;6.516;2022-11-15T12:31:24;2.33;;;0.90;;
29958;SDS011;16815;51.100;6.516;2022-11-15T12:33:51;5.43;;;1.33;;
29958;SDS011;16815;51.100;6.516;2022-11-15T12:41:22;4.33;;;1.43;;
29958;SDS011;16815;51.100;6.516;2022-11-15T12:43:48;4.30;;;1.13;;
29958;SDS011;16815;51.100;6.516;2022-11-15T12:52:13;2.53;;;1.10;;
29958;SDS011;16815;51.100;6.516;2022-11-15T13:07:58;2.83;;;1.30;;
29958;SDS011;16815;51.100;6.516;2022-11-15T13:12:54;2.27;;;1.10;;
29958;SDS011;16815;51.100;6.516;2022-11-15T13:17:47;1.93;;;1.10;;
29958;SDS011;16815;51.100;6.516;2022-11-15T13:30:40;2.63;;;1.00;;
29958;SDS011;16815;51.100;6.516;2022-11-15T13:33:08;3.10;;;1.50;;
29958;SDS011;16815;51.100;6.516;2022-11-15T13:35:35;2.17;;;1.10;;
29958;SDS011;16815;51.100;6.516;2022-11-15T13:38:03;2.70;;;1.20;;
29958;SDS011;16815;51.100;6.516;2022-11-15T13:40:36;2.40;;;1.10;;
29958;SDS011;16815;51.100;6.516;2022-11-15T13:48:32;2.70;;;1.10;;
29958;SDS011;16815;51.100;6.516;2022-11-15T13:50:58;6.40;;;1.80;;
29958;SDS011;16815;51.100;6.516;2022-11-15T13:53:25;2.67;;;1.30;;
29958;SDS011;16815;51.100;6.516;2022-11-15T13:55:51;2.77;;;1.30;;
29958;SDS011;16815;51.100;6.516;2022-11-15T13:58:19;1.50;;;1.27;;
29958;SDS011;16815;51.100;6.516;2022-11-15T14:00:45;3.77;;;1.53;;
29958;SDS011;16815;51.100;6.516;2022-11-15T14:05:39;2.13;;;1.40;;
29958;SDS011;16815;51.100;6.516;2022-11-15T14:10:37;1.40;;;1.30;;
29958;SDS011;16815;51.100;6.516;2022-11-15T14:13:03;2.60;;;1.50;;
29958;SDS011;16815;51.100;6.516;2022-11-15T14:15:31;3.77;;;1.50;;
29958;SDS011;16815;51.100;6.516;2022-11-15T14:17:58;1.50;;;1.20;;
29958;SDS011;16815;51.100;6.516;2022-11-15T14:22:51;2.33;;;1.63;;
29958;SDS011;16815;51.100;6.516;2022-11-15T14:25:18;4.00;;;1.40;;
29958;SDS011;16815;51.100;6.516;2022-11-15T14:28:07;4.60;;;1.73;;
29958;SDS011;16815;51.100;6.516;2022-11-15T14:30:30;4.20;;;1.83;;
29958;SDS011;16815;51.100;6.516;2022-11-15T14:32:56;2.80;;;1.60;;
29958;SDS011;16815;51.100;6.516;2022-11-15T14:35:22;2.90;;;1.50;;
29958;SDS011;16815;51.100;6.516;2022-11-15T14:37:49;4.50;;;1.97;;
29958;SDS011;16815;51.100;6.516;2022-11-15T14:40:16;4.00;;;1.40;;
29958;SDS011;16815;51.100;6.516;2022-11-15T14:42:43;2.23;;;1.53;;
29958;SDS011;16815;51.100;6.516;2022-11-15T14:45:11;3.03;;;1.80;;
29958;SDS011;16815;51.100;6.516;2022-11-15T14:47:38;4.00;;;2.10;;
29958;SDS011;16815;51.100;6.516;2022-11-15T14:50:04;3.50;;;1.70;;
29958;SDS011;16815;51.100;6.516;2022-11-15T14:52:31;4.50;;;2.10;;
29958;SDS011;16815;51.100;6.516;2022-11-15T14:55:01;6.30;;;2.33;;
29958;SDS011;16815;51.100;6.516;2022-11-15T14:57:27;2.23;;;2.00;;
29958;SDS011;16815;51.100;6.516;2022-11-15T14:59:53;3.20;;;2.13;;
29958;SDS011;16815;51.100;6.516;2022-11-15T15:02:23;2.83;;;2.30;;
29958;SDS011;16815;51.100;6.516;2022-11-15T15:04:50;3.97;;;2.03;;
29958;SDS011;16815;51.100;6.516;2022-11-15T15:07:16;2.63;;;2.17;;
29958;SDS011;16815;51.100;6.516;2022-11-15T15:09:42;4.53;;;2.60;;
29958;SDS011;16815;51.100;6.516;2022-11-15T15:12:15;3.87;;;2.93;;
29958;SDS011;16815;51.100;6.516;2022-11-15T15:14:42;3.73;;;2.60;;
29958;SDS011;16815;51.100;6.516;2022-11-15T15:17:08;4.93;;;2.80;;
29958;SDS011;16815;51.100;6.516;2022-11-15T15:19:34;4.50;;;2.67;;
29958;SDS011;16815;51.100;6.516;2022-11-15T15:22:00;3.63;;;2.43;;
29958;SDS011;16815;51.100;6.516;2022-11-15T15:24:26;2.57;;;2.20;;
29958;SDS011;16815;51.100;6.516;2022-11-15T15:26:52;2.90;;;2.47;;
29958;SDS011;16815;51.100;6.516;2022-11-15T15:29:18;5.13;;;2.90;;
29958;SDS011;16815;51.100;6.516;2022-11-15T15:31:44;3.20;;;2.87;;
29958;SDS011;16815;51.100;6.516;2022-11-15T15:34:10;3.60;;;2.40;;
29958;SDS011;16815;51.100;6.516;2022-11-15T15:36:37;3.27;;;2.70;;
29958;SDS011;16815;51.100;6.516;2022-11-15T15:39:03;5.93;;;2.70;;
29958;SDS011;16815;51.100;6.516;2022-11-15T15:41:29;4.67;;;3.00;;
29958;SDS011;16815;51.100;6.516;2022-11-15T15:43:55;4.93;;;2.70;;
29958;SDS011;16815;51.100;6.516;2022-11-15T15:46:21;3.93;;;2.80;;
29958;SDS011;16815;51.100;6.516;2022-11-15T15:48:47;3.07;;;2.77;;
29958;SDS011;16815;51.100;6.516;2022-11-15T15:51:13;4.23;;;2.93;;
29958;SDS011;16815;51.100;6.516;2022-11-15T15:53:39;4.07;;;3.20;;
29958;SDS011;16815;51.100;6.516;2022-11-15T15:56:05;7.10;;;4.17;;
29958;SDS011;16815;51.100;6.516;2022-11-15T15:58:33;8.67;;;5.30;;
29958;SDS011;16815;51.100;6.516;2022-11-15T16:00:59;5.27;;;2.77;;
29958;SDS011;16815;51.100;6.516;2022-11-15T16:03:24;5.03;;;2.80;;
29958;SDS011;16815;51.100;6.516;2022-11-15T16:05:52;4.87;;;2.90;;
29958;SDS011;16815;51.100;6.516;2022-11-15T16:08:19;3.17;;;2.40;;
29958;SDS011;16815;51.100;6.516;2022-11-15T16:10:45;3.80;;;2.70;;
29958;SDS011;16815;51.100;6.516;2022-11-15T16:13:11;3.87;;;2.57;;
29958;SDS011;16815;51.100;6.516;2022-11-15T16:15:37;5.00;;;2.80;;
29958;SDS011;16815;51.100;6.516;2022-11-15T16:18:03;4.33;;;2.67;;
29958;SDS011;16815;51.100;6.516;2022-11-15T16:23:03;4.43;;;2.50;;
29958;SDS011;16815;51.100;6.516;2022-11-15T16:25:30;5.17;;;2.30;;
29958;SDS011;16815;51.100;6.516;2022-11-15T16:27:57;4.37;;;3.00;;
29958;SDS011;16815;51.100;6.516;2022-11-15T16:30:23;5.90;;;2.97;;
29958;SDS011;16815;51.100;6.516;2022-11-15T16:32:49;5.60;;;2.70;;
29958;SDS011;16815;51.100;6.516;2022-11-15T16:35:15;4.27;;;2.30;;
29958;SDS011;16815;51.100;6.516;2022-11-15T16:37:42;2.17;;;1.97;;